Latest Weather Observations for Cowra

IDN60801

Issued at 7:32 pm EDT Saturday 13 February 2016 (issued every 30 minutes, with the page automatically refreshed every 10 minutes)

About weather observations | Map of weather stations | Latest weather observations for NSW | Other Formats
Station Details ID: 065111 Name: COWRA AIRPORT AWS Lat: -33.84 Lon: 148.65 Height: 296.5 m
Data from the previous 72 hours. | See also: Recent months at Cowra
Date/Time
EDT
Temp
°C
App
Temp
°C
Dew
Point
Rel
Hum
%
Delta-T
°C
Wind Press
QNH
hPa
Press
MSL
hPa
Rain
since 9 am
mm
Dir
 
Spd
km/h
Gust
km/h
Spd
kts
Gust
kts
13/07:30pm 32.1 29.6 9.6 25 12.9 N 13 20 7 11 1008.6 - 0.0
13/07:00pm 33.9 32.2 9.9 23 14.0 N 9 13 5 7 1008.5 - 0.0
13/06:30pm 34.8 34.8 9.9 22 14.5 CALM 0 11 0 6 1008.5 - 0.0
13/06:00pm 34.6 30.8 9.8 22 14.5 N 20 24 11 13 1008.7 1007.3 0.0
13/05:30pm 34.8 32.2 9.3 21 14.8 NW 13 20 7 11 1009.0 - 0.0
13/05:00pm 35.0 33.6 10.8 23 14.3 NNE 9 22 5 12 1009.0 - 0.0
13/04:30pm 35.5 33.6 10.5 22 14.8 NNW 11 24 6 13 1009.3 - 0.0
13/04:00pm 35.0 32.8 9.4 21 14.8 NNW 11 30 6 16 1009.7 - 0.0
13/03:30pm 33.9 32.6 9.9 23 14.0 WNW 7 17 4 9 1010.1 - 0.0
13/03:00pm 34.8 32.0 9.9 22 14.6 NW 15 28 8 15 1010.4 1009.0 0.0
13/02:30pm 34.4 32.8 11.5 25 13.7 W 11 20 6 11 1010.9 - 0.0
13/02:00pm 32.9 30.9 10.3 25 13.2 NW 11 22 6 12 1011.5 - 0.0
13/01:30pm 33.3 31.0 10.6 25 13.3 NW 13 24 7 13 1011.8 - 0.0
13/01:00pm 33.2 30.3 12.2 28 12.6 NNW 19 28 10 15 1012.3 - 0.0
13/12:30pm 32.4 30.5 14.1 33 11.3 NNW 17 26 9 14 1012.9 - 0.0
13/12:00pm 31.7 29.9 14.4 35 10.7 NNW 17 24 9 13 1013.3 1011.9 0.0
13/11:30am 30.6 28.7 14.2 36 10.0 NNW 17 24 9 13 1013.6 - 0.0
13/11:00am 29.8 28.5 14.7 39 9.3 NNW 15 22 8 12 1013.9 - 0.0
13/10:30am 28.5 28.0 15.8 46 7.9 NNW 13 19 7 10 1014.1 - 0.0
13/10:00am 26.4 26.0 15.1 49 6.9 N 11 17 6 9 1014.2 - 0.0
13/09:30am 24.9 25.3 15.2 54 5.9 NW 7 11 4 6 1014.4 - 0.0
13/09:00am 23.7 24.3 15.2 59 5.2 N 6 9 3 5 1014.4 1012.9 0.0
13/08:30am 22.7 24.7 16.0 66 4.1 CALM 0 7 0 4 1014.5 - 0.0
13/08:00am 20.4 22.3 15.8 75 2.8 CALM 0 4 0 2 1014.4 - 0.0
13/07:30am 18.3 19.7 14.4 78 2.3 CALM 0 0 0 0 1014.1 - 0.0
13/07:00am 16.9 17.9 13.2 79 2.1 CALM 0 0 0 0 1013.9 - 0.0
13/06:30am 17.4 18.7 14.1 81 1.9 CALM 0 0 0 0 1013.7 - 0.0
13/06:00am 17.5 18.8 14.0 80 2.0 CALM 0 0 0 0 1013.6 1012.1 0.0
13/05:30am 16.5 17.5 13.2 81 1.9 CALM 0 0 0 0 1013.2 - 0.0
13/05:00am 17.9 18.6 13.4 75 2.6 WNW 2 6 1 3 1013.2 - 0.0
13/04:30am 18.4 17.9 12.6 69 3.3 N 7 9 4 5 1013.0 - 0.0
13/04:00am 21.4 20.5 14.8 66 3.9 NE 13 19 7 10 1013.0 - 0.0
13/03:30am 21.9 20.6 14.8 64 4.2 NE 15 20 8 11 1013.1 - 0.0
13/03:00am 22.1 21.1 14.5 62 4.5 ENE 13 15 7 8 1013.2 1011.8 0.0
13/02:30am 22.0 21.3 14.4 62 4.5 ENE 11 15 6 8 1013.4 - 0.0
13/02:00am 21.9 21.3 14.5 63 4.4 NE 11 15 6 8 1013.5 - 0.0
13/01:30am 21.8 21.7 13.9 61 4.6 NE 7 15 4 8 1013.5 - 0.0
13/01:00am 22.6 23.8 13.7 57 5.2 CALM 0 6 0 3 1013.6 - 0.0
13/12:30am 22.8 23.0 14.1 58 5.2 E 6 13 3 7 1013.7 - 0.0
13/12:00am 22.2 21.8 13.0 56 5.3 SW 7 9 4 5 1013.7 1012.4 0.0
 
Date/Time
EDT
Temp
°C
App
Temp
°C
Dew
Point
Rel
Hum
%
Delta-T
°C
Wind Press
QNH
hPa
Press
MSL
hPa
Rain
since 9 am
mm
Dir
 
Spd
km/h
Gust
km/h
Spd
kts
Gust
kts
12/11:30pm 24.1 23.4 13.3 51 6.4 WSW 9 11 5 6 1013.7 - 0.0
12/11:00pm 25.0 22.3 13.5 48 6.8 ENE 20 28 11 15 1013.4 - 0.0
12/10:30pm 25.2 22.0 13.1 47 7.1 NE 22 35 12 19 1013.4 - 0.0
12/10:00pm 26.0 22.7 12.8 44 7.8 ENE 22 30 12 16 1013.4 - 0.0
12/09:30pm 26.6 24.0 13.3 43 7.9 ENE 19 28 10 15 1013.2 - 0.0
12/09:00pm 27.5 24.7 12.7 40 8.8 ENE 19 24 10 13 1012.9 1011.5 0.0
12/08:30pm 28.7 27.4 9.9 31 10.7 E 7 9 4 5 1012.5 - 0.0
12/08:00pm 30.0 28.8 9.5 28 11.6 E 6 7 3 4 1012.3 - 0.0
12/07:30pm 31.5 30.0 9.1 25 12.7 ESE 7 9 4 5 1012.1 - 0.0
12/07:00pm 32.3 32.1 9.2 24 13.2 CALM 0 7 0 4 1011.8 - 0.0
12/06:30pm 32.1 30.6 9.0 24 13.1 E 7 11 4 6 1011.7 - 0.0
12/06:00pm 32.3 30.6 8.5 23 13.5 E 7 9 4 5 1011.7 1010.4 0.0
12/05:30pm 32.8 30.5 8.9 23 13.6 E 11 19 6 10 1011.6 - 0.0
12/05:00pm 33.5 31.5 10.2 24 13.6 S 11 17 6 9 1011.8 - 0.0
12/04:30pm 33.3 31.6 10.0 24 13.5 NNW 9 15 5 8 1012.0 - 0.0
12/04:00pm 32.9 30.6 10.3 25 13.2 N 13 24 7 13 1012.3 - 0.0
12/03:30pm 31.2 28.2 9.4 26 12.4 NW 15 24 8 13 1012.8 - 0.0
12/03:00pm 32.5 30.4 9.9 25 13.1 WNW 11 19 6 10 1013.2 1011.8 0.0
12/02:30pm 30.9 29.3 10.3 28 11.9 WNW 9 15 5 8 1013.6 - 0.0
12/02:00pm 31.2 29.3 10.5 28 12.0 W 11 20 6 11 1013.8 - 0.0
12/01:30pm 31.0 29.2 10.9 29 11.7 SW 11 17 6 9 1014.2 - 0.0
12/01:00pm 30.4 29.1 11.4 31 11.1 WSW 9 17 5 9 1014.5 - 0.0
12/12:30pm 30.3 29.7 12.2 33 10.7 NNW 7 13 4 7 1014.9 - 0.0
12/12:00pm 29.7 29.1 14.7 40 9.2 N 11 20 6 11 1015.4 1014.1 0.0
12/11:30am 28.8 27.8 13.5 39 9.2 N 11 19 6 10 1015.6 - 0.0
12/11:00am 28.2 28.5 15.1 44 8.1 ESE 7 13 4 7 1016.0 - 0.0
12/10:30am 26.3 26.0 15.4 51 6.7 SE 11 13 6 7 1016.2 - 0.0
12/10:00am 25.2 25.6 15.2 54 6.1 SSE 7 13 4 7 1016.4 - 0.0
12/09:30am 23.9 24.1 14.6 56 5.6 E 7 11 4 6 1016.5 - 0.0
12/09:00am 22.5 22.8 15.1 63 4.5 SE 7 11 4 6 1016.6 1015.1 1.0
12/08:30am 21.7 22.0 15.1 66 4.0 ESE 7 9 4 5 1016.3 - 1.0
12/08:00am 19.2 20.5 14.0 72 3.0 CALM 0 0 0 0 1016.2 - 1.0
12/07:30am 17.3 17.1 13.6 79 2.1 SSW 7 9 4 5 1016.0 - 1.0
12/07:00am 16.6 16.5 13.9 84 1.6 S 7 9 4 5 1015.5 - 1.0
12/06:30am 16.0 15.3 13.1 83 1.6 SSE 9 11 5 6 1015.2 - 1.0
12/06:00am 17.3 16.9 14.2 82 1.8 S 9 11 5 6 1014.9 1013.7 1.0
12/05:30am 16.6 17.4 12.4 76 2.3 CALM 0 6 0 3 1014.6 - 1.0
12/05:00am 19.0 18.7 14.5 75 2.6 ESE 9 11 5 6 1014.3 - 1.0
12/04:30am 19.1 18.6 14.8 76 2.5 ESE 11 13 6 7 1014.3 - 1.0
12/04:00am 18.8 18.6 14.7 77 2.4 E 9 13 5 7 1014.2 - 1.0
12/03:30am 19.5 19.2 14.5 73 2.9 E 9 13 5 7 1014.3 - 1.0
12/03:00am 20.3 20.6 14.9 71 3.2 E 7 11 4 6 1014.1 1012.8 1.0
12/02:30am 19.9 20.4 15.1 74 2.9 NE 6 7 3 4 1014.1 - 1.0
12/02:00am 19.5 19.2 14.3 72 3.1 N 9 11 5 6 1014.3 - 1.0
12/01:30am 20.2 20.7 13.9 67 3.7 N 4 9 2 5 1014.4 - 1.0
12/01:00am 22.1 22.6 15.5 66 4.0 E 7 17 4 9 1014.7 - 1.0
12/12:30am 22.1 21.4 15.5 66 4.0 NE 13 17 7 9 1014.7 - 1.0
12/12:00am 22.3 21.9 15.2 64 4.3 E 11 20 6 11 1015.1 1013.9 1.0
 
Date/Time
EDT
Temp
°C
App
Temp
°C
Dew
Point
Rel
Hum
%
Delta-T
°C
Wind Press
QNH
hPa
Press
MSL
hPa
Rain
since 9 am
mm
Dir
 
Spd
km/h
Gust
km/h
Spd
kts
Gust
kts
11/11:30pm 22.7 22.2 15.0 61 4.6 E 11 19 6 10 1015.4 - 1.0
11/11:00pm 23.2 22.2 14.5 58 5.2 ESE 13 19 7 10 1015.6 - 1.0
11/10:30pm 24.0 21.2 12.6 49 6.6 SE 19 30 10 16 1015.7 - 1.0
11/10:00pm 24.9 23.5 14.4 52 6.3 ESE 15 26 8 14 1015.4 - 1.0
11/09:30pm 25.6 23.1 12.4 43 7.7 ESE 17 26 9 14 1014.3 - 1.0
11/09:00pm 25.2 22.6 13.1 47 7.1 S 19 24 10 13 1013.6 1012.1 1.0
11/08:30pm 25.5 22.6 13.0 46 7.4 ENE 20 37 11 20 1011.9 - 1.0
11/08:00pm 26.2 22.7 13.3 45 7.7 NE 24 33 13 18 1011.5 - 1.0
11/07:30pm 29.3 28.8 12.7 36 9.9 NE 7 24 4 13 1010.8 - 1.0
11/07:00pm 29.4 28.7 14.4 40 9.2 ENE 11 15 6 8 1009.9 - 1.0
11/06:30pm 30.2 29.9 14.3 38 9.7 E 9 15 5 8 1009.8 - 1.0
11/06:00pm 30.2 29.6 13.5 36 10.1 E 9 15 5 8 1009.5 1008.1 1.0
11/05:30pm 30.0 28.1 12.9 35 10.2 ENE 15 20 8 11 1009.5 - 1.0
11/05:00pm 28.1 25.4 12.8 38 9.1 E 19 35 10 19 1009.8 - 1.0
11/04:30pm 28.8 27.5 15.7 45 8.2 ENE 17 22 9 12 1009.9 - 1.0
11/04:00pm 29.6 27.6 11.6 33 10.6 E 13 20 7 11 1010.3 - 0.2
11/03:30pm 30.4 30.2 15.7 41 9.2 E 11 15 6 8 1010.4 - 0.2
11/03:00pm 29.0 28.6 14.0 39 9.1 E 9 15 5 8 1010.8 1009.5 0.2
11/02:30pm 29.5 28.3 12.9 36 9.9 E 11 22 6 12 1011.1 - 0.2
11/02:00pm 32.8 28.8 8.9 23 13.6 W 20 30 11 16 1011.5 - 0.0
11/01:30pm 34.1 30.5 10.0 23 14.1 W 19 26 10 14 1011.9 - 0.0
11/01:00pm 33.8 30.7 10.4 24 13.7 WNW 17 26 9 14 1012.2 - 0.0
11/12:30pm 33.1 29.5 9.8 24 13.5 NW 19 30 10 16 1012.7 - 0.0
11/12:00pm 32.5 29.2 11.6 28 12.4 WNW 20 30 11 16 1013.1 1011.8 0.0
11/11:30am 30.9 29.9 12.3 32 11.1 N 9 13 5 7 1013.5 - 0.0
11/11:00am 29.8 30.0 14.7 39 9.3 NW 7 13 4 7 1013.8 - 0.0
11/10:30am 28.2 27.9 13.3 40 8.9 N 7 13 4 7 1014.0 - 0.0
11/10:00am 27.0 28.0 14.4 46 7.6 E 2 9 1 5 1014.3 - 0.0
11/09:30am 25.4 25.4 14.2 50 6.7 SE 7 11 4 6 1014.3 - 0.0
11/09:00am 24.5 24.4 14.0 52 6.3 SE 7 9 4 5 1014.2 1012.7 0.0
11/08:30am 23.3 23.1 13.5 54 5.8 SE 7 9 4 5 1014.1 - 0.0
11/08:00am 21.4 21.3 13.8 62 4.5 S 7 9 4 5 1013.8 - 0.0
11/07:30am 19.3 19.1 13.7 70 3.2 S 7 9 4 5 1013.5 - 0.0
11/07:00am 17.1 15.9 12.8 76 2.4 SSW 11 13 6 7 1013.1 - 0.0
11/06:30am 16.6 15.9 11.3 71 2.9 ENE 6 7 3 4 1012.5 - 0.0
11/06:00am 18.3 16.7 11.4 64 3.8 E 11 13 6 7 1012.3 1011.0 0.0
11/05:30am 19.0 17.6 12.3 65 3.8 E 11 13 6 7 1012.2 - 0.0
11/05:00am 18.3 17.8 12.7 70 3.2 ESE 7 9 4 5 1012.0 - 0.0
11/04:30am 18.2 18.8 12.0 67 3.5 CALM 0 0 0 0 1011.9 - 0.0
11/04:00am 18.4 18.0 11.0 62 4.1 SSE 4 7 2 4 1011.8 - 0.0
11/03:30am 18.7 19.3 12.0 65 3.8 CALM 0 0 0 0 1011.8 - 0.0
11/03:00am 18.4 18.7 11.0 62 4.1 CALM 0 0 0 0 1011.8 1010.6 0.0
11/02:30am 18.4 17.7 10.0 58 4.5 ESE 4 9 2 5 1012.1 - 0.0
11/02:00am 18.9 18.9 9.7 55 4.9 CALM 0 4 0 2 1012.2 - 0.0
11/01:30am 21.3 20.2 10.8 51 5.8 ESE 7 11 4 6 1012.2 - 0.0
11/01:00am 21.5 21.4 10.9 51 5.9 SSE 2 9 1 5 1012.1 - 0.0
11/12:30am 22.7 21.6 10.8 47 6.7 E 7 11 4 6 1012.1 - 0.0
11/12:00am 21.8 21.0 10.9 50 6.1 S 6 6 3 3 1012.2 1010.9 0.0
 
Date/Time
EDT
Temp
°C
App
Temp
°C
Dew
Point
Rel
Hum
%
Delta-T
°C
Wind Press
QNH
hPa
Press
MSL
hPa
Rain
since 9 am
mm
Dir
 
Spd
km/h
Gust
km/h
Spd
kts
Gust
kts
10/11:30pm 25.7 24.2 10.7 39 8.5 ESE 9 11 5 6 1012.2 - 0.0
10/11:00pm 25.4 23.9 9.3 36 8.9 ESE 7 9 4 5 1012.2 - 0.0
10/10:30pm 25.9 24.5 10.9 39 8.5 SSE 9 11 5 6 1012.3 - 0.0
10/10:00pm 24.7 24.7 12.3 46 7.2 W 4 7 2 4 1012.0 - 0.0
10/09:30pm 26.9 25.5 9.7 34 9.7 NNE 7 9 4 5 1011.7 - 0.0
10/09:00pm 25.4 23.6 9.3 36 8.9 N 9 9 5 5 1011.7 1010.3 0.0
10/08:30pm 30.0 29.5 7.8 25 12.3 CALM 0 0 0 0 1011.4 - 0.0
10/08:00pm 31.5 30.0 8.5 24 12.9 SE 6 7 3 4 1011.4 - 0.0

Other Formats:

Comma delimited format used in spreadsheet applications
http://www.bom.gov.au/fwo/IDN60801/IDN60801.95721.axf

JavaScript Object Notation format (JSON) in row-major order
http://www.bom.gov.au/fwo/IDN60801/IDN60801.95721.json